Collington, North Carolina
Current Conditions -  °F | °C
As of 7:35 PM on Wednesday 17 Dec 2014 (Local Time) from KFFA Reporting Station
Clear Clear  
Wind Chill: 48°   Ceiling: Unl
Heat Index: 48°   Visibility: 10mi
Dew Point: 45°   Wind: 0mph
Humidity: 90%   Direction: NA
Pressure: 30.03"   Gusts: NA
Location:  36.1034°N, 75.7289°W
Report Text: KFFA 180035Z AUTO 00000KT 10SM CLR 09/07 A3003 RMK AO2 T00880072
Loading
Personal Weather Stations






























Interactive Weather Map New forecast layout! Learn more

10-Day Weather Forecast

Advertisements
Track Severe Weather on mobile